logo
App data

Carpe Diem

In this very short kinetic novel, you will play as Jung who's meeting up and hanging out with a girl named Ai. Spend your time wisely.
Store | Hub | SteamDB
Developer: Moonlit Works Publisher: Moonlit Works
Genre: Casual, Free to Play, Indie
Languages: English, Spanish - Spain, Polish, Japanese, German, French, Italian, Portuguese - Brazil, Swedish, Russian, Korean, Thai
Tags: Free to Play (272), Anime (228), Visual Novel (206), Short (115), Indie (101), Singleplayer (101), Casual (97), Cute (97), Dating Sim (89), Nudity (59), Sexual Content (54), 2D (32), Psychological Horror (31), Story Rich (20), Memes (18), Mature (14), Family Friendly (7), Horror (7), Female Protagonist (7), Romance (5)
Category: Single-player, Steam Achievements, Steam Cloud
Release date: Nov 30, 2015
Free
Old userscore: 89% Owners: 200,000 .. 500,000
Followers: 10,953
Peak concurrent players yesterday: 3
YouTube stats: 134 views and 29 comments for top 50 videos uploaded last week, 1 new videos uploaded yesterday.
Playtime total: 00:14 (average) 00:12 (median)

Steam Spy is still in beta, so expect major bugs.

Owners data:

Access restricted.

This feature is only available to users with special access rights. Sorry.

If you want to proceed, you need to register or log in first and then back Steam Spy on Patreon. Look for Indie or Pro pledge.

Don't forget to use the same email as on Steam Spy!

Audience in 2 weeks:

Access restricted.

This feature is only available to users with special access rights. Sorry.

If you want to proceed, you need to register or log in first and then back Steam Spy on Patreon. Look for Indie or Pro pledge.

Don't forget to use the same email as on Steam Spy!

Peak daily concurrent players:

CCU data courtesy of SteamDB. Used with permission.

Hourly concurrent players:

Daily Twitch stats:

Hourly Twitch stats:

Followers over time

Access restricted.

This feature is only available to users with special access rights. Sorry.

If you want to proceed, you need to register or log in first and then back Steam Spy on Patreon. Look for Indie or Pro pledge.

Don't forget to use the same email as on Steam Spy!

Views for top 50 videos on YouTube for this game:

Games similar to this one:

# Game Release date
Price
Score rank
(Userscore / Metascore)
Owners
Players
Playtime (Median)
1 Age of Heroes: Conquest Apr 17, 2017 N/AN/A (N/A)0 .. 20,0000%00:00 (00:00)
2 Piñata Sep 1, 2016 FreeN/A (N/A)0 .. 20,0000%00:00 (00:00)
3 Kira Mar 15, 2017 FreeN/A (N/A)20,000 .. 50,0000%00:00 (00:00)
4 Campaign Clicker Oct 3, 2016 FreeN/A (N/A)50,000 .. 100,0000%00:00 (00:00)
5 Kio's Adventure Apr 7, 2017 $1.99N/A (N/A)100,000 .. 200,0000%00:00 (00:00)
6 Jonah's Path Jul 10, 2016 FreeN/A (N/A)50,000 .. 100,0000%00:00 (00:00)
7 Quanero VR Aug 12, 2016 FreeN/A (N/A)50,000 .. 100,0000%00:00 (00:00)
8 Time Leap Paradise SUPER LIVE! Dec 15, 2016 N/AN/A (N/A)20,000 .. 50,0000%00:00 (00:00)
9 Blocks by Google Jul 6, 2017 FreeN/A (N/A)100,000 .. 200,0000%00:00 (00:00)
10 One Thousand Lies Mar 28, 2016 FreeN/A (N/A)50,000 .. 100,0000%00:00 (00:00)
11 Totemori Feb 10, 2017 FreeN/A (N/A)50,000 .. 100,0000%00:00 (00:00)
12 Vintage VR May 2, 2016 FreeN/A (N/A)50,000 .. 100,0000%00:00 (00:00)
13 Canvas The Gallery Feb 16, 2017 FreeN/A (N/A)20,000 .. 50,0000%00:00 (00:00)
14 Pandum online Sep 16, 2016 FreeN/A (N/A)20,000 .. 50,0000%00:00 (00:00)
15 Star Wolves Mar 2, 2010 $3.99N/A (N/A)50,000 .. 100,0000%00:00 (00:00)
16 Realms of Arkania: Blade of Destiny Jul 29, 2013 $14.99N/A (N/A)50,000 .. 100,0000%00:00 (00:00)
17 ArcaniA: Fall of Setarrif Oct 24, 2011 $14.99N/A (N/A)100,000 .. 200,0000%00:00 (00:00)
18 Anachronox Jun 27, 2001 $6.99N/A (N/A/77%)200,000 .. 500,0000%00:00 (00:00)
19 Breath of Death VII Jul 13, 2011 $2.99N/A (N/A)500,000 .. 1,000,0000%00:00 (00:00)
20 Omikron: The Nomad Soul Nov 2, 1999 $9.99N/A (N/A)100,000 .. 200,0000%00:00 (00:00)
21 Geneforge 2 Jul 1, 2003 $19.99N/A (N/A)50,000 .. 100,0000%00:00 (00:00)
22 Wizardry 6: Bane of the Cosmic Forge Sep 10, 2013 $4.99N/A (N/A)50,000 .. 100,0000%00:00 (00:00)
23 Geneforge 3 Apr 1, 2005 $19.99N/A (N/A)50,000 .. 100,0000%00:00 (00:00)
24 Wizardry 7: Crusaders of the Dark Savant Sep 10, 2013 $4.99N/A (N/A)50,000 .. 100,0000%00:00 (00:00)
25 Geneforge 5: Overthrow Nov 1, 2008 $19.99N/A (N/A)50,000 .. 100,0000%00:00 (00:00)
26 Iesabel Jul 7, 2013 $4.99N/A (N/A)200,000 .. 500,0000%00:00 (00:00)
27 R.A.W. Realms of Ancient War Oct 11, 2012 $9.99N/A (N/A)200,000 .. 500,0000%00:00 (00:00)
28 Freedom Force Mar 26, 2002 $4.99N/A (N/A/90%)100,000 .. 200,0000%00:00 (00:00)
29 ROSE Online Oct 23, 2012 N/AN/A (N/A)200,000 .. 500,0000%00:00 (00:00)
30 Freedom Force vs. the Third Reich Mar 8, 2005 $4.99N/A (N/A)100,000 .. 200,0000%00:00 (00:00)
31 Nethergate: Resurrection Mar 1, 2008 $4.99N/A (N/A)50,000 .. 100,0000%00:00 (00:00)
32 Floating Point Jun 6, 2014 N/AN/A (N/A)500,000 .. 1,000,0000%00:00 (00:00)
33 Dofus Nov 15, 2016 N/AN/A (N/A/72%)100,000 .. 200,0000%00:00 (00:00)
34 Trapped Dead: Lockdown Mar 20, 2015 $9.99N/A (N/A)50,000 .. 100,0000%00:00 (00:00)
35 Max Gentlemen Aug 21, 2014 FreeN/A (N/A)100,000 .. 200,0000%00:00 (00:00)
36 Data Hacker: Initiation Jul 21, 2014 $2.99N/A (N/A)500,000 .. 1,000,0000%00:00 (00:00)
37 Two Brothers Dec 3, 2013 N/AN/A (N/A/57%)50,000 .. 100,0000%00:00 (00:00)
38 Battlegrounds of Eldhelm Oct 22, 2014 N/AN/A (N/A)50,000 .. 100,0000%00:00 (00:00)
39 Anarchy Arcade Sep 3, 2014 FreeN/A (N/A)500,000 .. 1,000,0000%00:00 (00:00)
40 Vulture for NetHack Feb 1, 2005 $2.99N/A (N/A)0 .. 20,0000%00:00 (00:00)
41 Arcane Worlds Jan 28, 2014 $9.99N/A (N/A)20,000 .. 50,0000%00:00 (00:00)
42 Among Ripples Jan 22, 2015 N/AN/A (N/A)200,000 .. 500,0000%00:00 (00:00)
43 Soulbringer Jun 30, 2000 $0.89N/A (N/A/70%)50,000 .. 100,0000%00:00 (00:00)
44 Heroes of Havoc: Idle Adventures Dec 15, 2016 FreeN/A (N/A)50,000 .. 100,0000%00:00 (00:00)
45 ACE - Arena: Cyber Evolution Aug 18, 2014 N/AN/A (N/A)200,000 .. 500,0000%00:00 (00:00)
46 Gorky 17 Dec 31, 1999 $4.99N/A (N/A)200,000 .. 500,0000%00:00 (00:00)
47 A.I.M.2 Clan Wars Aug 18, 2007 $2.99N/A (N/A)50,000 .. 100,0000%00:00 (00:00)
48 KnightShift Dec 31, 2003 $6.99N/A (N/A)500,000 .. 1,000,0000%00:00 (00:00)
49 how do you Do It? Jan 26, 2014 FreeN/A (N/A)200,000 .. 500,0000%00:00 (00:00)
50 Atom Universe Dec 25, 2017 FreeN/A (N/A)100,000 .. 200,0000%00:00 (00:00)
51 Windscape Mar 27, 2019 $19.99N/A (N/A)0 .. 20,0000%00:00 (00:00)
52 Cloney Mar 15, 2014 FreeN/A (N/A)100,000 .. 200,0000%00:00 (00:00)
53 Force of Elements Dec 29, 2015 FreeN/A (N/A)20,000 .. 50,0000%00:00 (00:00)
54 Bitku Feb 9, 2017 FreeN/A (N/A)20,000 .. 50,0000%00:00 (00:00)
55 Bitweb Jun 3, 2015 FreeN/A (N/A)50,000 .. 100,0000%00:00 (00:00)
56 Legend of Dungeon: Masters Nov 30, 2015 N/AN/A (N/A)100,000 .. 200,0000%00:00 (00:00)
57 Otherland MMO Sep 10, 2015 FreeN/A (N/A)50,000 .. 100,0000%00:00 (00:00)
58 Asdivine Hearts Feb 1, 2016 $9.99N/A (N/A)0 .. 20,0000%00:00 (00:00)
59 Badland Bandits Jul 16, 2015 FreeN/A (N/A)20,000 .. 50,0000%00:00 (00:00)
60 Firefly Online Cortex Jan 29, 2015 FreeN/A (N/A)100,000 .. 200,0000%00:00 (00:00)
61 Lamia Must Die Feb 17, 2014 FreeN/A (N/A)20,000 .. 50,0000%00:00 (00:00)
62 Without Within Jan 22, 2015 FreeN/A (N/A)200,000 .. 500,0000%00:00 (00:00)
63 9Dragons Feb 14, 2017 FreeN/A (N/A)50,000 .. 100,0000%00:00 (00:00)
64 Red Stone Online Apr 2015 N/AN/A (N/A)100,000 .. 200,0000%00:00 (00:00)
65 RoShamBo Jul 14, 2016 FreeN/A (N/A)50,000 .. 100,0000%00:00 (00:00)
66 Rock Paper Scissors Champion Feb 27, 2016 FreeN/A (N/A)50,000 .. 100,0000%00:00 (00:00)
67 Mathoria: It All Adds Up Dec 27, 2014 FreeN/A (N/A)20,000 .. 50,0000%00:00 (00:00)
68 Atulos Online Apr 30, 2016 FreeN/A (N/A)20,000 .. 50,0000%00:00 (00:00)
69 The Panic Room Apr 27, 2016 FreeN/A (N/A)100,000 .. 200,0000%00:00 (00:00)
70 Palinurus Dec 9, 2016 FreeN/A (N/A)0 .. 20,0000%00:00 (00:00)
71 SOLRAVEN Mar 1, 2016 FreeN/A (N/A)50,000 .. 100,0000%00:00 (00:00)
72 SurrealVR Apr 15, 2016 FreeN/A (N/A)50,000 .. 100,0000%00:00 (00:00)
73 Fantasy Tales Online May 5, 2016 FreeN/A (N/A)100,000 .. 200,0000%00:00 (00:00)
74 Skyreach Apr 29, 2016 FreeN/A (N/A)50,000 .. 100,0000%00:00 (00:00)
75 The Average Everyday Adventures of Samantha Browne Apr 18, 2016 FreeN/A (N/A)100,000 .. 200,0000%00:00 (00:00)
76 Wander No More Feb 18, 2017 FreeN/A (N/A)20,000 .. 50,0000%00:00 (00:00)
77 Lost girl`s [diary] Mar 25, 2016 FreeN/A (N/A)50,000 .. 100,0000%00:00 (00:00)
78 Labyrinth Mar 7, 2016 N/AN/A (N/A)20,000 .. 50,0000%00:00 (00:00)
79 Maneki's Curse Oct 25, 2016 FreeN/A (N/A)0 .. 20,0000%00:00 (00:00)
80 Metaverse Construction Kit Dec 6, 2015 FreeN/A (N/A)100,000 .. 200,0000%00:00 (00:00)
81 The Bottom of the Well Jan 25, 2016 FreeN/A (N/A)50,000 .. 100,0000%00:00 (00:00)
82 Gods and Idols Dec 12, 2016 FreeN/A (N/A)100,000 .. 200,0000%00:00 (00:00)

Geography of active players over time, share:

Access restricted.

This feature is only available to users with special access rights. Sorry.

If you want to proceed, you need to register or log in first and then back Steam Spy on Patreon. Look for Indie or Pro pledge.

Don't forget to use the same email as on Steam Spy!

Tags over time:

Access restricted.

This feature is only available to users with special access rights. Sorry.

If you want to proceed, you need to register or log in first and then back Steam Spy on Patreon. Look for Indie or Pro pledge.

Don't forget to use the same email as on Steam Spy!

Owners of this game also own:

Access restricted.

This feature is only available to users with special access rights. Sorry.

If you want to proceed, you need to register or log in first and then back Steam Spy on Patreon. Look for Indie or Pro pledge.

Don't forget to use the same email as on Steam Spy!

Playtime distribution:

Access restricted.

This feature is only available to users with special access rights. Sorry.

If you want to proceed, you need to register or log in first and then back Steam Spy on Patreon. Look for Indie or Pro pledge.

Don't forget to use the same email as on Steam Spy!

Playtime (2 weeks):

Access restricted.

This feature is only available to users with special access rights. Sorry.

If you want to proceed, you need to register or log in first and then back Steam Spy on Patreon. Look for Indie or Pro pledge.

Don't forget to use the same email as on Steam Spy!

User reviews:

Login required.

Please register or log in to see this information.